sensor_id;sensor_type;location;lat;lon;timestamp;pressure;altitude;pressure_sealevel;temperature;humidity
19672;BME280;9983;51.114;13.788;2023-04-25T00:02:12;98514.47;;;10.17;81.27
19672;BME280;9983;51.114;13.788;2023-04-25T00:07:12;98514.19;;;9.84;82.17
19672;BME280;9983;51.114;13.788;2023-04-25T00:12:12;98516.13;;;10.18;81.46
19672;BME280;9983;51.114;13.788;2023-04-25T00:17:13;98510.59;;;10.54;79.24
19672;BME280;9983;51.114;13.788;2023-04-25T00:22:13;98517.56;;;10.90;77.68
19672;BME280;9983;51.114;13.788;2023-04-25T00:27:13;98516.94;;;10.88;77.37
19672;BME280;9983;51.114;13.788;2023-04-25T00:32:14;98509.66;;;10.34;78.82
19672;BME280;9983;51.114;13.788;2023-04-25T00:37:14;98509.44;;;10.08;81.05
19672;BME280;9983;51.114;13.788;2023-04-25T00:42:15;98508.16;;;10.59;78.86
19672;BME280;9983;51.114;13.788;2023-04-25T00:47:15;98505.16;;;10.41;79.91
19672;BME280;9983;51.114;13.788;2023-04-25T00:52:16;98508.56;;;9.79;81.92
19672;BME280;9983;51.114;13.788;2023-04-25T00:57:16;98501.78;;;10.05;84.77
19672;BME280;9983;51.114;13.788;2023-04-25T01:02:17;98497.34;;;10.46;78.64
19672;BME280;9983;51.114;13.788;2023-04-25T01:07:17;98497.66;;;10.30;80.70
19672;BME280;9983;51.114;13.788;2023-04-25T01:12:18;98499.31;;;10.31;80.41
19672;BME280;9983;51.114;13.788;2023-04-25T01:17:18;98501.06;;;9.89;82.18
19672;BME280;9983;51.114;13.788;2023-04-25T01:22:19;98503.69;;;10.11;81.96
19672;BME280;9983;51.114;13.788;2023-04-25T01:27:19;98519.78;;;9.89;84.07
19672;BME280;9983;51.114;13.788;2023-04-25T01:32:22;98508.56;;;10.01;83.78
19672;BME280;9983;51.114;13.788;2023-04-25T01:37:23;98490.00;;;9.99;83.46
19672;BME280;9983;51.114;13.788;2023-04-25T01:42:23;98500.19;;;9.82;84.28
19672;BME280;9983;51.114;13.788;2023-04-25T01:47:23;98497.91;;;9.58;86.96
19672;BME280;9983;51.114;13.788;2023-04-25T01:52:24;98507.47;;;9.67;87.83
19672;BME280;9983;51.114;13.788;2023-04-25T01:57:24;98495.09;;;9.66;87.42
19672;BME280;9983;51.114;13.788;2023-04-25T02:02:24;98498.66;;;9.31;89.00
19672;BME280;9983;51.114;13.788;2023-04-25T02:07:26;98494.72;;;9.48;87.98
19672;BME280;9983;51.114;13.788;2023-04-25T02:12:27;98489.75;;;9.66;86.72
19672;BME280;9983;51.114;13.788;2023-04-25T02:17:27;98501.75;;;9.70;85.90
19672;BME280;9983;51.114;13.788;2023-04-25T02:22:28;98501.09;;;9.47;86.34
19672;BME280;9983;51.114;13.788;2023-04-25T02:27:30;98496.50;;;9.41;87.57
19672;BME280;9983;51.114;13.788;2023-04-25T02:32:30;98492.56;;;9.58;86.06
19672;BME280;9983;51.114;13.788;2023-04-25T02:37:31;98495.38;;;9.50;86.09
19672;BME280;9983;51.114;13.788;2023-04-25T02:42:32;98494.59;;;9.35;86.61
19672;BME280;9983;51.114;13.788;2023-04-25T02:47:32;98489.91;;;9.37;86.29
19672;BME280;9983;51.114;13.788;2023-04-25T02:52:32;98494.56;;;8.92;88.89
19672;BME280;9983;51.114;13.788;2023-04-25T02:57:33;98491.78;;;9.22;86.90
19672;BME280;9983;51.114;13.788;2023-04-25T03:02:33;98490.53;;;9.18;87.16
19672;BME280;9983;51.114;13.788;2023-04-25T03:07:33;98492.41;;;9.02;88.08
19672;BME280;9983;51.114;13.788;2023-04-25T03:12:33;98486.19;;;8.95;88.45
19672;BME280;9983;51.114;13.788;2023-04-25T03:17:34;98491.00;;;8.85;89.30
19672;BME280;9983;51.114;13.788;2023-04-25T03:22:34;98486.22;;;8.66;89.79
19672;BME280;9983;51.114;13.788;2023-04-25T03:27:34;98487.88;;;8.67;90.80
19672;BME280;9983;51.114;13.788;2023-04-25T03:32:34;98483.81;;;8.71;90.59
19672;BME280;9983;51.114;13.788;2023-04-25T03:37:35;98490.66;;;8.59;90.23
19672;BME280;9983;51.114;13.788;2023-04-25T03:42:35;98491.72;;;8.20;93.93
19672;BME280;9983;51.114;13.788;2023-04-25T03:47:35;98488.19;;;8.93;88.12
19672;BME280;9983;51.114;13.788;2023-04-25T03:52:35;98488.44;;;8.77;88.85
19672;BME280;9983;51.114;13.788;2023-04-25T03:57:36;98487.19;;;8.44;91.33
19672;BME280;9983;51.114;13.788;2023-04-25T04:02:36;98483.09;;;8.18;93.28
19672;BME280;9983;51.114;13.788;2023-04-25T04:07:37;98482.84;;;7.76;94.08
19672;BME280;9983;51.114;13.788;2023-04-25T04:12:40;98479.44;;;8.49;89.00
19672;BME280;9983;51.114;13.788;2023-04-25T04:17:40;98483.28;;;8.31;91.09
19672;BME280;9983;51.114;13.788;2023-04-25T04:22:41;98495.44;;;8.49;90.01
19672;BME280;9983;51.114;13.788;2023-04-25T04:27:41;98494.44;;;8.35;90.86
19672;BME280;9983;51.114;13.788;2023-04-25T04:32:41;98494.03;;;7.94;93.78
19672;BME280;9983;51.114;13.788;2023-04-25T04:37:41;98497.19;;;7.75;95.85
19672;BME280;9983;51.114;13.788;2023-04-25T04:42:42;98498.88;;;7.76;94.45
19672;BME280;9983;51.114;13.788;2023-04-25T04:47:44;98506.41;;;7.87;94.19
19672;BME280;9983;51.114;13.788;2023-04-25T04:52:45;98513.13;;;8.64;90.60
19672;BME280;9983;51.114;13.788;2023-04-25T04:57:45;98509.69;;;8.26;93.17
19672;BME280;9983;51.114;13.788;2023-04-25T05:02:46;98521.03;;;8.28;93.65
19672;BME280;9983;51.114;13.788;2023-04-25T05:07:46;98522.31;;;8.91;90.13
19672;BME280;9983;51.114;13.788;2023-04-25T05:12:46;98524.41;;;8.96;87.01
19672;BME280;9983;51.114;13.788;2023-04-25T05:17:46;98519.03;;;8.60;85.57
19672;BME280;9983;51.114;13.788;2023-04-25T05:22:47;98524.81;;;8.63;86.33
19672;BME280;9983;51.114;13.788;2023-04-25T05:27:47;98524.16;;;8.76;86.32
19672;BME280;9983;51.114;13.788;2023-04-25T05:32:47;98521.00;;;9.23;81.68
19672;BME280;9983;51.114;13.788;2023-04-25T05:37:48;98521.88;;;8.73;81.56
19672;BME280;9983;51.114;13.788;2023-04-25T05:42:48;98519.88;;;8.96;80.91
19672;BME280;9983;51.114;13.788;2023-04-25T05:47:48;98523.50;;;9.25;78.50
19672;BME280;9983;51.114;13.788;2023-04-25T05:52:49;98520.97;;;9.59;75.54
19672;BME280;9983;51.114;13.788;2023-04-25T05:57:49;98533.25;;;9.11;75.82
19672;BME280;9983;51.114;13.788;2023-04-25T06:02:50;98512.69;;;9.11;74.96
19672;BME280;9983;51.114;13.788;2023-04-25T06:07:50;98526.56;;;9.85;72.86
19672;BME280;9983;51.114;13.788;2023-04-25T06:12:50;98530.78;;;9.52;72.52
19672;BME280;9983;51.114;13.788;2023-04-25T06:17:50;98537.53;;;9.27;75.05
19672;BME280;9983;51.114;13.788;2023-04-25T06:22:51;98529.13;;;9.51;74.41
19672;BME280;9983;51.114;13.788;2023-04-25T06:27:51;98535.16;;;9.17;73.21
19672;BME280;9983;51.114;13.788;2023-04-25T06:32:52;98528.00;;;9.60;72.88
19672;BME280;9983;51.114;13.788;2023-04-25T06:37:53;98527.91;;;10.52;69.56
19672;BME280;9983;51.114;13.788;2023-04-25T06:42:53;98520.44;;;9.92;71.13
19672;BME280;9983;51.114;13.788;2023-04-25T06:47:53;98537.00;;;10.02;70.14
19672;BME280;9983;51.114;13.788;2023-04-25T06:52:53;98528.03;;;10.16;70.12
19672;BME280;9983;51.114;13.788;2023-04-25T06:57:54;98533.06;;;10.94;67.54
19672;BME280;9983;51.114;13.788;2023-04-25T07:02:54;98527.59;;;10.75;67.39
19672;BME280;9983;51.114;13.788;2023-04-25T07:07:55;98529.59;;;10.59;66.56
19672;BME280;9983;51.114;13.788;2023-04-25T07:12:55;98536.81;;;10.31;66.73
19672;BME280;9983;51.114;13.788;2023-04-25T07:17:55;98545.38;;;10.89;64.92
19672;BME280;9983;51.114;13.788;2023-04-25T07:22:55;98541.50;;;10.98;67.01
19672;BME280;9983;51.114;13.788;2023-04-25T07:27:56;98539.59;;;10.79;65.46
19672;BME280;9983;51.114;13.788;2023-04-25T07:32:56;98537.28;;;11.23;63.75
19672;BME280;9983;51.114;13.788;2023-04-25T07:37:56;98549.72;;;11.37;63.43
19672;BME280;9983;51.114;13.788;2023-04-25T07:42:57;98542.50;;;10.84;63.67
19672;BME280;9983;51.114;13.788;2023-04-25T07:47:57;98546.88;;;11.72;61.22
19672;BME280;9983;51.114;13.788;2023-04-25T07:52:57;98542.75;;;11.63;61.92
19672;BME280;9983;51.114;13.788;2023-04-25T07:57:57;98547.06;;;11.51;61.47
19672;BME280;9983;51.114;13.788;2023-04-25T08:02:58;98546.31;;;12.09;61.18
19672;BME280;9983;51.114;13.788;2023-04-25T08:07:58;98559.09;;;11.81;60.67
19672;BME280;9983;51.114;13.788;2023-04-25T08:12:59;98558.50;;;12.05;60.44
19672;BME280;9983;51.114;13.788;2023-04-25T08:17:59;98565.94;;;11.90;60.77
19672;BME280;9983;51.114;13.788;2023-04-25T08:23:00;98570.38;;;11.50;62.89
19672;BME280;9983;51.114;13.788;2023-04-25T08:28:00;98565.13;;;12.09;62.34
19672;BME280;9983;51.114;13.788;2023-04-25T08:33:02;98580.97;;;11.71;64.19
19672;BME280;9983;51.114;13.788;2023-04-25T08:38:03;98575.22;;;12.47;61.79
19672;BME280;9983;51.114;13.788;2023-04-25T08:43:03;98584.13;;;12.01;62.06
19672;BME280;9983;51.114;13.788;2023-04-25T08:48:07;98593.81;;;11.76;61.74
19672;BME280;9983;51.114;13.788;2023-04-25T08:53:12;98591.47;;;11.60;64.01
19672;BME280;9983;51.114;13.788;2023-04-25T08:58:18;98585.59;;;12.10;63.38
19672;BME280;9983;51.114;13.788;2023-04-25T09:03:18;98598.59;;;12.00;60.54
19672;BME280;9983;51.114;13.788;2023-04-25T09:08:19;98610.84;;;11.49;62.77
19672;BME280;9983;51.114;13.788;2023-04-25T09:13:28;98604.41;;;12.10;62.13
19672;BME280;9983;51.114;13.788;2023-04-25T09:18:30;98607.28;;;12.48;58.65
19672;BME280;9983;51.114;13.788;2023-04-25T09:23:31;98618.44;;;12.39;57.86
19672;BME280;9983;51.114;13.788;2023-04-25T09:28:38;98625.91;;;12.37;57.32
19672;BME280;9983;51.114;13.788;2023-04-25T09:33:40;98634.59;;;12.12;61.09
19672;BME280;9983;51.114;13.788;2023-04-25T09:38:45;98646.50;;;11.90;62.62
19672;BME280;9983;51.114;13.788;2023-04-25T09:43:45;98645.16;;;11.60;62.43
19672;BME280;9983;51.114;13.788;2023-04-25T09:48:50;98642.88;;;11.09;65.71
19672;BME280;9983;51.114;13.788;2023-04-25T09:53:50;98641.53;;;10.92;66.20
19672;BME280;9983;51.114;13.788;2023-04-25T09:58:52;98644.06;;;11.95;63.32
19672;BME280;9983;51.114;13.788;2023-04-25T10:03:56;98644.06;;;12.74;60.11
19672;BME280;9983;51.114;13.788;2023-04-25T10:08:58;98647.38;;;12.24;61.39
19672;BME280;9983;51.114;13.788;2023-04-25T10:13:59;98654.84;;;12.22;59.19
19672;BME280;9983;51.114;13.788;2023-04-25T10:19:00;98660.66;;;12.45;60.95
19672;BME280;9983;51.114;13.788;2023-04-25T10:24:01;98677.31;;;11.94;60.73
19672;BME280;9983;51.114;13.788;2023-04-25T10:29:03;98677.56;;;12.26;61.35
19672;BME280;9983;51.114;13.788;2023-04-25T10:34:04;98678.41;;;12.13;63.57
19672;BME280;9983;51.114;13.788;2023-04-25T10:39:06;98674.09;;;12.45;63.81
19672;BME280;9983;51.114;13.788;2023-04-25T10:44:09;98673.00;;;13.12;61.71
19672;BME280;9983;51.114;13.788;2023-04-25T10:49:10;98676.31;;;12.15;64.54
19672;BME280;9983;51.114;13.788;2023-04-25T10:54:11;98685.31;;;11.81;66.15
19672;BME280;9983;51.114;13.788;2023-04-25T10:59:14;98684.44;;;11.74;65.84
19672;BME280;9983;51.114;13.788;2023-04-25T11:04:31;98685.00;;;11.15;69.25
19672;BME280;9983;51.114;13.788;2023-04-25T11:09:33;98699.59;;;11.40;69.28
19672;BME280;9983;51.114;13.788;2023-04-25T11:14:33;98705.09;;;10.98;72.12
19672;BME280;9983;51.114;13.788;2023-04-25T11:19:34;98716.59;;;10.85;75.33
19672;BME280;9983;51.114;13.788;2023-04-25T11:24:35;98714.66;;;11.07;75.88
19672;BME280;9983;51.114;13.788;2023-04-25T11:29:36;98723.41;;;11.22;73.26
19672;BME280;9983;51.114;13.788;2023-04-25T11:34:36;98732.78;;;11.05;71.58
19672;BME280;9983;51.114;13.788;2023-04-25T11:39:37;98728.94;;;11.14;70.30
19672;BME280;9983;51.114;13.788;2023-04-25T11:44:40;98742.13;;;11.09;68.43
19672;BME280;9983;51.114;13.788;2023-04-25T11:49:40;98736.66;;;11.65;63.26
19672;BME280;9983;51.114;13.788;2023-04-25T11:54:44;98739.13;;;12.14;60.38
19672;BME280;9983;51.114;13.788;2023-04-25T11:59:44;98739.81;;;13.54;55.40
19672;BME280;9983;51.114;13.788;2023-04-25T12:04:45;98739.22;;;13.13;56.03
19672;BME280;9983;51.114;13.788;2023-04-25T12:09:51;98748.13;;;12.54;56.94
19672;BME280;9983;51.114;13.788;2023-04-25T12:14:51;98749.94;;;12.47;57.99
19672;BME280;9983;51.114;13.788;2023-04-25T12:19:52;98744.84;;;11.91;60.12
19672;BME280;9983;51.114;13.788;2023-04-25T12:24:52;98749.00;;;11.87;61.49
19672;BME280;9983;51.114;13.788;2023-04-25T12:29:55;98750.78;;;12.28;58.70
19672;BME280;9983;51.114;13.788;2023-04-25T12:34:56;98744.63;;;11.45;60.05
19672;BME280;9983;51.114;13.788;2023-04-25T12:39:56;98753.63;;;12.20;57.57
19672;BME280;9983;51.114;13.788;2023-04-25T12:44:56;98748.66;;;12.23;56.92
19672;BME280;9983;51.114;13.788;2023-04-25T12:49:56;98746.69;;;12.84;55.70
19672;BME280;9983;51.114;13.788;2023-04-25T12:54:57;98762.75;;;12.32;58.85
19672;BME280;9983;51.114;13.788;2023-04-25T12:59:57;98764.00;;;12.36;55.87
19672;BME280;9983;51.114;13.788;2023-04-25T13:04:57;98760.25;;;12.24;55.61
19672;BME280;9983;51.114;13.788;2023-04-25T13:09:57;98756.91;;;12.08;58.25
19672;BME280;9983;51.114;13.788;2023-04-25T13:14:59;98775.03;;;11.93;57.57
19672;BME280;9983;51.114;13.788;2023-04-25T13:19:59;98774.50;;;11.70;57.45
19672;BME280;9983;51.114;13.788;2023-04-25T13:24:59;98790.75;;;11.27;58.48
19672;BME280;9983;51.114;13.788;2023-04-25T13:30:00;98785.22;;;11.70;58.87
19672;BME280;9983;51.114;13.788;2023-04-25T13:35:05;98795.56;;;11.38;58.68
19672;BME280;9983;51.114;13.788;2023-04-25T13:40:08;98794.59;;;11.46;56.37
19672;BME280;9983;51.114;13.788;2023-04-25T13:45:09;98793.97;;;11.16;55.53
19672;BME280;9983;51.114;13.788;2023-04-25T13:50:10;98802.25;;;10.72;57.20
19672;BME280;9983;51.114;13.788;2023-04-25T13:55:10;98795.63;;;11.17;57.36
19672;BME280;9983;51.114;13.788;2023-04-25T14:00:11;98812.66;;;10.82;57.08
19672;BME280;9983;51.114;13.788;2023-04-25T14:05:11;98812.25;;;11.34;56.04
19672;BME280;9983;51.114;13.788;2023-04-25T14:10:13;98820.78;;;11.16;56.24
19672;BME280;9983;51.114;13.788;2023-04-25T14:15:13;98811.91;;;11.44;54.28
19672;BME280;9983;51.114;13.788;2023-04-25T14:20:13;98817.03;;;11.11;55.19
19672;BME280;9983;51.114;13.788;2023-04-25T14:25:14;98807.97;;;11.74;55.50
19672;BME280;9983;51.114;13.788;2023-04-25T14:30:14;98828.78;;;12.61;53.08
19672;BME280;9983;51.114;13.788;2023-04-25T14:35:14;98819.56;;;13.42;49.60
19672;BME280;9983;51.114;13.788;2023-04-25T14:40:15;98822.00;;;15.29;43.83
19672;BME280;9983;51.114;13.788;2023-04-25T14:45:17;98816.53;;;14.03;46.17
19672;BME280;9983;51.114;13.788;2023-04-25T14:50:17;98836.50;;;12.90;49.35
19672;BME280;9983;51.114;13.788;2023-04-25T14:55:18;98838.00;;;12.32;51.40
19672;BME280;9983;51.114;13.788;2023-04-25T15:00:18;98829.94;;;15.73;45.32
19672;BME280;9983;51.114;13.788;2023-04-25T15:05:20;98837.75;;;15.81;40.58
19672;BME280;9983;51.114;13.788;2023-04-25T15:10:22;98851.03;;;13.61;40.55
19672;BME280;9983;51.114;13.788;2023-04-25T15:15:22;98851.88;;;13.29;41.42
19672;BME280;9983;51.114;13.788;2023-04-25T15:20:23;98850.22;;;13.15;42.01
19672;BME280;9983;51.114;13.788;2023-04-25T15:25:24;98856.72;;;12.66;43.34
19672;BME280;9983;51.114;13.788;2023-04-25T15:30:24;98864.13;;;11.69;45.53
19672;BME280;9983;51.114;13.788;2023-04-25T15:35:25;98856.53;;;11.45;46.15
19672;BME280;9983;51.114;13.788;2023-04-25T15:40:25;98869.22;;;11.85;46.25
19672;BME280;9983;51.114;13.788;2023-04-25T15:45:26;98874.97;;;11.82;46.57
19672;BME280;9983;51.114;13.788;2023-04-25T15:50:26;98874.16;;;11.32;46.71
19672;BME280;9983;51.114;13.788;2023-04-25T15:55:27;98877.00;;;11.24;48.19
19672;BME280;9983;51.114;13.788;2023-04-25T16:00:27;98867.91;;;11.25;48.21
19672;BME280;9983;51.114;13.788;2023-04-25T16:05:28;98867.97;;;11.60;47.29
19672;BME280;9983;51.114;13.788;2023-04-25T16:10:28;98869.22;;;11.29;47.17
19672;BME280;9983;51.114;13.788;2023-04-25T16:15:29;98864.75;;;11.43;46.72
19672;BME280;9983;51.114;13.788;2023-04-25T16:20:29;98866.38;;;11.37;46.21
19672;BME280;9983;51.114;13.788;2023-04-25T16:25:29;98871.16;;;11.70;45.07
19672;BME280;9983;51.114;13.788;2023-04-25T16:30:29;98870.94;;;11.99;44.17
19672;BME280;9983;51.114;13.788;2023-04-25T16:35:30;98867.94;;;12.89;40.29
19672;BME280;9983;51.114;13.788;2023-04-25T16:40:31;98872.13;;;13.05;38.39
19672;BME280;9983;51.114;13.788;2023-04-25T16:45:31;98879.09;;;12.73;36.87
19672;BME280;9983;51.114;13.788;2023-04-25T16:50:32;98890.09;;;12.31;37.20
19672;BME280;9983;51.114;13.788;2023-04-25T16:55:32;98904.06;;;11.51;38.38
19672;BME280;9983;51.114;13.788;2023-04-25T17:00:33;98906.09;;;11.49;39.32
19672;BME280;9983;51.114;13.788;2023-04-25T17:05:34;98913.66;;;11.17;41.60
19672;BME280;9983;51.114;13.788;2023-04-25T17:10:34;98908.56;;;11.01;43.40
19672;BME280;9983;51.114;13.788;2023-04-25T17:15:34;98922.88;;;11.29;43.09
19672;BME280;9983;51.114;13.788;2023-04-25T17:20:35;98919.78;;;11.54;43.29
19672;BME280;9983;51.114;13.788;2023-04-25T17:25:35;98922.06;;;11.78;42.84
19672;BME280;9983;51.114;13.788;2023-04-25T17:30:36;98932.19;;;11.83;42.77
19672;BME280;9983;51.114;13.788;2023-04-25T17:35:36;98933.78;;;11.28;44.10
19672;BME280;9983;51.114;13.788;2023-04-25T17:40:36;98942.94;;;11.12;44.65
19672;BME280;9983;51.114;13.788;2023-04-25T17:45:36;98951.09;;;10.68;45.04
19672;BME280;9983;51.114;13.788;2023-04-25T17:50:37;98963.34;;;10.41;45.34
19672;BME280;9983;51.114;13.788;2023-04-25T17:55:37;98968.22;;;10.52;44.14
19672;BME280;9983;51.114;13.788;2023-04-25T18:00:38;98973.59;;;10.52;44.54
19672;BME280;9983;51.114;13.788;2023-04-25T18:05:38;98977.19;;;10.59;44.55
19672;BME280;9983;51.114;13.788;2023-04-25T18:10:38;98978.50;;;10.34;45.16
19672;BME280;9983;51.114;13.788;2023-04-25T18:15:39;98972.72;;;10.67;45.20
19672;BME280;9983;51.114;13.788;2023-04-25T18:20:41;98976.25;;;10.67;45.08
19672;BME280;9983;51.114;13.788;2023-04-25T18:25:41;98986.25;;;10.44;45.98
19672;BME280;9983;51.114;13.788;2023-04-25T18:30:41;98997.91;;;10.51;46.05
19672;BME280;9983;51.114;13.788;2023-04-25T18:35:43;99002.50;;;10.57;45.73
19672;BME280;9983;51.114;13.788;2023-04-25T18:40:43;99011.09;;;10.23;46.94
19672;BME280;9983;51.114;13.788;2023-04-25T18:45:43;99018.78;;;10.26;47.44
19672;BME280;9983;51.114;13.788;2023-04-25T18:50:44;99025.91;;;10.19;48.03
19672;BME280;9983;51.114;13.788;2023-04-25T18:55:45;99027.78;;;10.10;49.42
19672;BME280;9983;51.114;13.788;2023-04-25T19:00:45;99038.81;;;10.30;49.52
19672;BME280;9983;51.114;13.788;2023-04-25T19:05:46;99042.00;;;9.73;51.52
19672;BME280;9983;51.114;13.788;2023-04-25T19:10:48;99050.75;;;10.05;51.64
19672;BME280;9983;51.114;13.788;2023-04-25T19:15:48;99045.75;;;9.64;52.76
19672;BME280;9983;51.114;13.788;2023-04-25T19:20:48;99047.94;;;9.83;52.53
19672;BME280;9983;51.114;13.788;2023-04-25T19:25:49;99045.22;;;9.23;53.59
19672;BME280;9983;51.114;13.788;2023-04-25T19:30:49;99052.84;;;9.57;53.23
19672;BME280;9983;51.114;13.788;2023-04-25T19:35:49;99047.25;;;9.44;53.71
19672;BME280;9983;51.114;13.788;2023-04-25T19:40:49;99045.94;;;9.40;53.64
19672;BME280;9983;51.114;13.788;2023-04-25T19:45:50;99054.38;;;9.29;54.76
19672;BME280;9983;51.114;13.788;2023-04-25T19:50:50;99059.38;;;9.55;55.55
19672;BME280;9983;51.114;13.788;2023-04-25T19:55:50;99062.38;;;9.60;55.34
19672;BME280;9983;51.114;13.788;2023-04-25T20:00:51;99061.88;;;9.56;54.74
19672;BME280;9983;51.114;13.788;2023-04-25T20:05:51;99067.78;;;9.21;57.17
19672;BME280;9983;51.114;13.788;2023-04-25T20:10:52;99068.38;;;9.08;56.71
19672;BME280;9983;51.114;13.788;2023-04-25T20:15:52;99074.63;;;8.53;57.10
19672;BME280;9983;51.114;13.788;2023-04-25T20:20:53;99075.94;;;8.96;56.43
19672;BME280;9983;51.114;13.788;2023-04-25T20:25:53;99081.91;;;9.06;56.61
19672;BME280;9983;51.114;13.788;2023-04-25T20:30:53;99081.34;;;8.80;57.70
19672;BME280;9983;51.114;13.788;2023-04-25T20:35:53;99097.31;;;8.96;56.57
19672;BME280;9983;51.114;13.788;2023-04-25T20:40:54;99096.84;;;8.93;57.42
19672;BME280;9983;51.114;13.788;2023-04-25T20:45:55;99093.47;;;8.52;58.75
19672;BME280;9983;51.114;13.788;2023-04-25T20:50:56;99086.81;;;8.95;58.54
19672;BME280;9983;51.114;13.788;2023-04-25T20:55:57;99091.19;;;8.80;58.43
19672;BME280;9983;51.114;13.788;2023-04-25T21:00:58;99088.47;;;8.49;59.35
19672;BME280;9983;51.114;13.788;2023-04-25T21:05:58;99095.81;;;8.47;58.89
19672;BME280;9983;51.114;13.788;2023-04-25T21:10:59;99107.47;;;8.54;58.35
19672;BME280;9983;51.114;13.788;2023-04-25T21:15:59;99110.84;;;8.23;59.38
19672;BME280;9983;51.114;13.788;2023-04-25T21:21:00;99112.53;;;8.08;59.71
19672;BME280;9983;51.114;13.788;2023-04-25T21:26:03;99112.88;;;8.05;60.20
19672;BME280;9983;51.114;13.788;2023-04-25T21:31:03;99118.19;;;8.05;60.33
19672;BME280;9983;51.114;13.788;2023-04-25T21:36:03;99118.56;;;8.02;60.22
19672;BME280;9983;51.114;13.788;2023-04-25T21:41:04;99119.88;;;8.22;60.41
19672;BME280;9983;51.114;13.788;2023-04-25T21:46:04;99115.53;;;7.97;60.99
19672;BME280;9983;51.114;13.788;2023-04-25T21:51:04;99112.22;;;8.11;61.18
19672;BME280;9983;51.114;13.788;2023-04-25T21:56:05;99115.22;;;8.08;61.48
19672;BME280;9983;51.114;13.788;2023-04-25T22:01:05;99117.19;;;8.30;61.04
19672;BME280;9983;51.114;13.788;2023-04-25T22:06:06;99125.22;;;8.22;61.61
19672;BME280;9983;51.114;13.788;2023-04-25T22:11:06;99128.25;;;8.03;62.76
19672;BME280;9983;51.114;13.788;2023-04-25T22:16:07;99140.59;;;8.45;61.73
19672;BME280;9983;51.114;13.788;2023-04-25T22:21:11;99135.84;;;8.71;61.32
19672;BME280;9983;51.114;13.788;2023-04-25T22:26:11;99147.56;;;8.62;61.87
19672;BME280;9983;51.114;13.788;2023-04-25T22:31:12;99140.06;;;8.25;62.60
19672;BME280;9983;51.114;13.788;2023-04-25T22:36:12;99143.88;;;8.63;62.10
19672;BME280;9983;51.114;13.788;2023-04-25T22:41:12;99149.25;;;8.38;63.32
19672;BME280;9983;51.114;13.788;2023-04-25T22:46:15;99165.94;;;8.24;63.46
19672;BME280;9983;51.114;13.788;2023-04-25T22:51:15;99162.94;;;8.52;63.18
19672;BME280;9983;51.114;13.788;2023-04-25T22:56:16;99165.97;;;8.41;63.39
19672;BME280;9983;51.114;13.788;2023-04-25T23:01:16;99168.94;;;8.29;64.36
19672;BME280;9983;51.114;13.788;2023-04-25T23:06:17;99168.59;;;8.16;65.24
19672;BME280;9983;51.114;13.788;2023-04-25T23:11:18;99174.28;;;8.13;66.61
19672;BME280;9983;51.114;13.788;2023-04-25T23:16:19;99178.47;;;8.32;66.20
19672;BME280;9983;51.114;13.788;2023-04-25T23:21:19;99171.28;;;8.08;68.03
19672;BME280;9983;51.114;13.788;2023-04-25T23:26:20;99178.28;;;7.85;70.38
19672;BME280;9983;51.114;13.788;2023-04-25T23:31:20;99181.63;;;8.11;70.08
19672;BME280;9983;51.114;13.788;2023-04-25T23:36:21;99182.59;;;7.70;71.85
19672;BME280;9983;51.114;13.788;2023-04-25T23:41:21;99190.91;;;7.75;72.84
19672;BME280;9983;51.114;13.788;2023-04-25T23:46:22;99198.66;;;8.02;71.76
19672;BME280;9983;51.114;13.788;2023-04-25T23:51:22;99213.28;;;7.82;73.07
19672;BME280;9983;51.114;13.788;2023-04-25T23:56:22;99206.25;;;7.81;72.85
